sensor_id;sensor_type;location;lat;lon;timestamp;P1;P2;P0
74880;PMS5003;63427;49.654;6.596;2023-05-28T00:01:42;9;9;
74880;PMS5003;63427;49.654;6.596;2023-05-28T00:04:08;10;10;
74880;PMS5003;63427;49.654;6.596;2023-05-28T00:06:33;9;9;
74880;PMS5003;63427;49.654;6.596;2023-05-28T00:08:59;12;12;
74880;PMS5003;63427;49.654;6.596;2023-05-28T00:11:24;9;9;
74880;PMS5003;63427;49.654;6.596;2023-05-28T00:13:50;8;8;
74880;PMS5003;63427;49.654;6.596;2023-05-28T00:16:15;9;9;
74880;PMS5003;63427;49.654;6.596;2023-05-28T00:18:40;8;8;
74880;PMS5003;63427;49.654;6.596;2023-05-28T00:21:06;10;10;
74880;PMS5003;63427;49.654;6.596;2023-05-28T00:23:31;10;10;
74880;PMS5003;63427;49.654;6.596;2023-05-28T00:25:57;8;8;
74880;PMS5003;63427;49.654;6.596;2023-05-28T00:28:22;8;8;
74880;PMS5003;63427;49.654;6.596;2023-05-28T00:30:48;7;7;
74880;PMS5003;63427;49.654;6.596;2023-05-28T00:33:14;7;7;
74880;PMS5003;63427;49.654;6.596;2023-05-28T00:35:39;10;10;
74880;PMS5003;63427;49.654;6.596;2023-05-28T00:38:04;9;9;
74880;PMS5003;63427;49.654;6.596;2023-05-28T00:40:30;8;8;
74880;PMS5003;63427;49.654;6.596;2023-05-28T00:42:55;9;9;
74880;PMS5003;63427;49.654;6.596;2023-05-28T00:45:22;10;10;
74880;PMS5003;63427;49.654;6.596;2023-05-28T00:47:46;10;9;
74880;PMS5003;63427;49.654;6.596;2023-05-28T00:50:11;10;9;
74880;PMS5003;63427;49.654;6.596;2023-05-28T00:52:37;9;9;
74880;PMS5003;63427;49.654;6.596;2023-05-28T00:55:03;11;11;
74880;PMS5003;63427;49.654;6.596;2023-05-28T00:57:28;9;9;
74880;PMS5003;63427;49.654;6.596;2023-05-28T00:59:53;9;9;
74880;PMS5003;63427;49.654;6.596;2023-05-28T01:02:18;8;8;
74880;PMS5003;63427;49.654;6.596;2023-05-28T01:04:44;10;9;
74880;PMS5003;63427;49.654;6.596;2023-05-28T01:07:09;11;10;
74880;PMS5003;63427;49.654;6.596;2023-05-28T01:09:34;9;9;
74880;PMS5003;63427;49.654;6.596;2023-05-28T01:12:00;11;10;
74880;PMS5003;63427;49.654;6.596;2023-05-28T01:14:26;8;8;
74880;PMS5003;63427;49.654;6.596;2023-05-28T01:16:51;8;8;
74880;PMS5003;63427;49.654;6.596;2023-05-28T01:19:17;10;9;
74880;PMS5003;63427;49.654;6.596;2023-05-28T01:21:42;8;7;
74880;PMS5003;63427;49.654;6.596;2023-05-28T01:24:07;10;10;
74880;PMS5003;63427;49.654;6.596;2023-05-28T01:26:33;10;10;
74880;PMS5003;63427;49.654;6.596;2023-05-28T01:28:59;10;10;
74880;PMS5003;63427;49.654;6.596;2023-05-28T01:31:24;10;10;
74880;PMS5003;63427;49.654;6.596;2023-05-28T01:33:49;9;8;
74880;PMS5003;63427;49.654;6.596;2023-05-28T01:36:16;8;8;
74880;PMS5003;63427;49.654;6.596;2023-05-28T01:38:40;10;9;
74880;PMS5003;63427;49.654;6.596;2023-05-28T01:41:06;11;11;
74880;PMS5003;63427;49.654;6.596;2023-05-28T01:43:31;10;10;
74880;PMS5003;63427;49.654;6.596;2023-05-28T01:45:57;13;10;
74880;PMS5003;63427;49.654;6.596;2023-05-28T01:48:22;11;10;
74880;PMS5003;63427;49.654;6.596;2023-05-28T01:50:48;12;12;
74880;PMS5003;63427;49.654;6.596;2023-05-28T01:53:13;10;10;
74880;PMS5003;63427;49.654;6.596;2023-05-28T01:55:39;9;9;
74880;PMS5003;63427;49.654;6.596;2023-05-28T01:58:04;10;10;
74880;PMS5003;63427;49.654;6.596;2023-05-28T02:00:30;9;9;
74880;PMS5003;63427;49.654;6.596;2023-05-28T02:02:55;10;10;
74880;PMS5003;63427;49.654;6.596;2023-05-28T02:05:21;9;9;
74880;PMS5003;63427;49.654;6.596;2023-05-28T02:07:46;10;10;
74880;PMS5003;63427;49.654;6.596;2023-05-28T02:10:12;10;9;
74880;PMS5003;63427;49.654;6.596;2023-05-28T02:12:37;11;11;
74880;PMS5003;63427;49.654;6.596;2023-05-28T02:15:03;11;10;
74880;PMS5003;63427;49.654;6.596;2023-05-28T02:17:28;10;9;
74880;PMS5003;63427;49.654;6.596;2023-05-28T02:19:54;11;11;
74880;PMS5003;63427;49.654;6.596;2023-05-28T02:22:19;10;10;
74880;PMS5003;63427;49.654;6.596;2023-05-28T02:24:45;10;10;
74880;PMS5003;63427;49.654;6.596;2023-05-28T02:27:10;10;9;
74880;PMS5003;63427;49.654;6.596;2023-05-28T02:29:36;10;9;
74880;PMS5003;63427;49.654;6.596;2023-05-28T02:32:02;11;10;
74880;PMS5003;63427;49.654;6.596;2023-05-28T02:34:27;10;10;
74880;PMS5003;63427;49.654;6.596;2023-05-28T02:36:53;11;11;
74880;PMS5003;63427;49.654;6.596;2023-05-28T02:39:18;10;10;
74880;PMS5003;63427;49.654;6.596;2023-05-28T02:41:44;8;8;
74880;PMS5003;63427;49.654;6.596;2023-05-28T02:44:09;10;9;
74880;PMS5003;63427;49.654;6.596;2023-05-28T02:46:34;11;10;
74880;PMS5003;63427;49.654;6.596;2023-05-28T02:49:00;11;9;
74880;PMS5003;63427;49.654;6.596;2023-05-28T02:51:26;13;11;
74880;PMS5003;63427;49.654;6.596;2023-05-28T02:53:51;11;11;
74880;PMS5003;63427;49.654;6.596;2023-05-28T02:56:17;8;8;
74880;PMS5003;63427;49.654;6.596;2023-05-28T02:58:42;13;12;
74880;PMS5003;63427;49.654;6.596;2023-05-28T03:01:12;11;11;
74880;PMS5003;63427;49.654;6.596;2023-05-28T03:03:33;11;10;
74880;PMS5003;63427;49.654;6.596;2023-05-28T03:05:59;11;11;
74880;PMS5003;63427;49.654;6.596;2023-05-28T03:08:24;11;11;
74880;PMS5003;63427;49.654;6.596;2023-05-28T03:10:50;11;11;
74880;PMS5003;63427;49.654;6.596;2023-05-28T03:13:16;11;11;
74880;PMS5003;63427;49.654;6.596;2023-05-28T03:15:41;10;10;
74880;PMS5003;63427;49.654;6.596;2023-05-28T03:18:06;11;10;
74880;PMS5003;63427;49.654;6.596;2023-05-28T03:20:32;9;9;
74880;PMS5003;63427;49.654;6.596;2023-05-28T03:22:58;10;10;
74880;PMS5003;63427;49.654;6.596;2023-05-28T03:25:23;11;10;
74880;PMS5003;63427;49.654;6.596;2023-05-28T03:27:49;10;10;
74880;PMS5003;63427;49.654;6.596;2023-05-28T03:30:15;12;11;
74880;PMS5003;63427;49.654;6.596;2023-05-28T03:32:40;9;9;
74880;PMS5003;63427;49.654;6.596;2023-05-28T03:35:06;10;10;
74880;PMS5003;63427;49.654;6.596;2023-05-28T03:37:31;13;12;
74880;PMS5003;63427;49.654;6.596;2023-05-28T03:39:56;10;10;
74880;PMS5003;63427;49.654;6.596;2023-05-28T03:42:22;14;14;
74880;PMS5003;63427;49.654;6.596;2023-05-28T03:44:47;14;14;
74880;PMS5003;63427;49.654;6.596;2023-05-28T03:47:12;10;10;
74880;PMS5003;63427;49.654;6.596;2023-05-28T03:49:38;17;17;
74880;PMS5003;63427;49.654;6.596;2023-05-28T03:52:04;10;10;
74880;PMS5003;63427;49.654;6.596;2023-05-28T03:54:28;11;11;
74880;PMS5003;63427;49.654;6.596;2023-05-28T03:56:54;14;14;
74880;PMS5003;63427;49.654;6.596;2023-05-28T03:59:20;10;10;
74880;PMS5003;63427;49.654;6.596;2023-05-28T04:01:45;11;10;
74880;PMS5003;63427;49.654;6.596;2023-05-28T04:04:11;12;11;
74880;PMS5003;63427;49.654;6.596;2023-05-28T04:06:36;10;9;
74880;PMS5003;63427;49.654;6.596;2023-05-28T04:09:02;13;12;
74880;PMS5003;63427;49.654;6.596;2023-05-28T04:11:27;13;13;
74880;PMS5003;63427;49.654;6.596;2023-05-28T04:13:54;11;11;
74880;PMS5003;63427;49.654;6.596;2023-05-28T04:16:19;10;10;
74880;PMS5003;63427;49.654;6.596;2023-05-28T04:18:44;12;11;
74880;PMS5003;63427;49.654;6.596;2023-05-28T04:21:10;13;12;
74880;PMS5003;63427;49.654;6.596;2023-05-28T04:23:35;14;13;
74880;PMS5003;63427;49.654;6.596;2023-05-28T04:26:01;12;12;
74880;PMS5003;63427;49.654;6.596;2023-05-28T04:28:26;13;13;
74880;PMS5003;63427;49.654;6.596;2023-05-28T04:30:52;12;11;
74880;PMS5003;63427;49.654;6.596;2023-05-28T04:33:17;13;12;
74880;PMS5003;63427;49.654;6.596;2023-05-28T04:35:43;12;11;
74880;PMS5003;63427;49.654;6.596;2023-05-28T04:38:08;12;10;
74880;PMS5003;63427;49.654;6.596;2023-05-28T04:40:33;12;11;
74880;PMS5003;63427;49.654;6.596;2023-05-28T04:42:59;9;9;
74880;PMS5003;63427;49.654;6.596;2023-05-28T04:45:25;16;16;
74880;PMS5003;63427;49.654;6.596;2023-05-28T04:47:50;9;9;
74880;PMS5003;63427;49.654;6.596;2023-05-28T04:50:15;9;9;
74880;PMS5003;63427;49.654;6.596;2023-05-28T04:52:41;10;10;
74880;PMS5003;63427;49.654;6.596;2023-05-28T04:55:07;12;12;
74880;PMS5003;63427;49.654;6.596;2023-05-28T04:57:32;9;9;
74880;PMS5003;63427;49.654;6.596;2023-05-28T04:59:58;10;10;
74880;PMS5003;63427;49.654;6.596;2023-05-28T05:02:23;13;12;
74880;PMS5003;63427;49.654;6.596;2023-05-28T05:04:49;9;9;
74880;PMS5003;63427;49.654;6.596;2023-05-28T05:07:15;13;12;
74880;PMS5003;63427;49.654;6.596;2023-05-28T05:09:40;10;10;
74880;PMS5003;63427;49.654;6.596;2023-05-28T05:12:06;11;11;
74880;PMS5003;63427;49.654;6.596;2023-05-28T05:14:31;13;13;
74880;PMS5003;63427;49.654;6.596;2023-05-28T05:16:57;12;12;
74880;PMS5003;63427;49.654;6.596;2023-05-28T05:19:22;10;10;
74880;PMS5003;63427;49.654;6.596;2023-05-28T05:21:48;13;12;
74880;PMS5003;63427;49.654;6.596;2023-05-28T05:24:14;10;10;
74880;PMS5003;63427;49.654;6.596;2023-05-28T05:26:39;11;11;
74880;PMS5003;63427;49.654;6.596;2023-05-28T05:29:04;12;11;
74880;PMS5003;63427;49.654;6.596;2023-05-28T05:31:29;13;13;
74880;PMS5003;63427;49.654;6.596;2023-05-28T05:33:55;15;15;
74880;PMS5003;63427;49.654;6.596;2023-05-28T05:36:20;14;14;
74880;PMS5003;63427;49.654;6.596;2023-05-28T05:38:46;13;13;
74880;PMS5003;63427;49.654;6.596;2023-05-28T05:41:11;15;13;
74880;PMS5003;63427;49.654;6.596;2023-05-28T05:43:37;10;10;
74880;PMS5003;63427;49.654;6.596;2023-05-28T05:46:02;14;13;
74880;PMS5003;63427;49.654;6.596;2023-05-28T05:48:28;14;13;
74880;PMS5003;63427;49.654;6.596;2023-05-28T05:50:54;12;12;
74880;PMS5003;63427;49.654;6.596;2023-05-28T05:53:19;13;13;
74880;PMS5003;63427;49.654;6.596;2023-05-28T05:55:45;12;12;
74880;PMS5003;63427;49.654;6.596;2023-05-28T05:58:10;11;11;
74880;PMS5003;63427;49.654;6.596;2023-05-28T06:00:35;13;13;
74880;PMS5003;63427;49.654;6.596;2023-05-28T06:03:01;13;13;
74880;PMS5003;63427;49.654;6.596;2023-05-28T06:05:27;13;12;
74880;PMS5003;63427;49.654;6.596;2023-05-28T06:07:52;15;15;
74880;PMS5003;63427;49.654;6.596;2023-05-28T06:10:17;13;13;
74880;PMS5003;63427;49.654;6.596;2023-05-28T06:12:43;13;12;
74880;PMS5003;63427;49.654;6.596;2023-05-28T06:15:08;14;14;
74880;PMS5003;63427;49.654;6.596;2023-05-28T06:17:34;13;13;
74880;PMS5003;63427;49.654;6.596;2023-05-28T06:19:59;12;11;
74880;PMS5003;63427;49.654;6.596;2023-05-28T06:22:24;15;14;
74880;PMS5003;63427;49.654;6.596;2023-05-28T06:24:50;17;15;
74880;PMS5003;63427;49.654;6.596;2023-05-28T06:27:15;12;12;
74880;PMS5003;63427;49.654;6.596;2023-05-28T06:29:40;14;13;
74880;PMS5003;63427;49.654;6.596;2023-05-28T06:32:06;15;14;
74880;PMS5003;63427;49.654;6.596;2023-05-28T06:34:31;12;12;
74880;PMS5003;63427;49.654;6.596;2023-05-28T06:36:57;11;11;
74880;PMS5003;63427;49.654;6.596;2023-05-28T06:39:22;11;11;
74880;PMS5003;63427;49.654;6.596;2023-05-28T06:41:47;12;12;
74880;PMS5003;63427;49.654;6.596;2023-05-28T06:44:13;12;12;
74880;PMS5003;63427;49.654;6.596;2023-05-28T06:46:38;14;13;
74880;PMS5003;63427;49.654;6.596;2023-05-28T06:49:03;13;13;
74880;PMS5003;63427;49.654;6.596;2023-05-28T06:51:29;11;10;
74880;PMS5003;63427;49.654;6.596;2023-05-28T06:53:54;12;11;
74880;PMS5003;63427;49.654;6.596;2023-05-28T06:56:19;11;11;
74880;PMS5003;63427;49.654;6.596;2023-05-28T06:58:44;14;14;
74880;PMS5003;63427;49.654;6.596;2023-05-28T07:01:10;16;15;
74880;PMS5003;63427;49.654;6.596;2023-05-28T07:03:35;11;10;
74880;PMS5003;63427;49.654;6.596;2023-05-28T07:06:00;11;10;
74880;PMS5003;63427;49.654;6.596;2023-05-28T07:08:25;15;14;
74880;PMS5003;63427;49.654;6.596;2023-05-28T07:10:51;11;10;
74880;PMS5003;63427;49.654;6.596;2023-05-28T07:13:17;11;11;
74880;PMS5003;63427;49.654;6.596;2023-05-28T07:15:42;13;13;
74880;PMS5003;63427;49.654;6.596;2023-05-28T07:18:08;13;12;
74880;PMS5003;63427;49.654;6.596;2023-05-28T07:20:33;11;11;
74880;PMS5003;63427;49.654;6.596;2023-05-28T07:22:59;12;11;
74880;PMS5003;63427;49.654;6.596;2023-05-28T07:25:24;13;13;
74880;PMS5003;63427;49.654;6.596;2023-05-28T07:27:49;10;10;
74880;PMS5003;63427;49.654;6.596;2023-05-28T07:30:14;9;9;
74880;PMS5003;63427;49.654;6.596;2023-05-28T07:32:39;11;11;
74880;PMS5003;63427;49.654;6.596;2023-05-28T07:35:05;9;9;
74880;PMS5003;63427;49.654;6.596;2023-05-28T07:37:30;10;10;
74880;PMS5003;63427;49.654;6.596;2023-05-28T07:39:55;11;11;
74880;PMS5003;63427;49.654;6.596;2023-05-28T07:42:20;10;10;
74880;PMS5003;63427;49.654;6.596;2023-05-28T07:44:46;10;10;
74880;PMS5003;63427;49.654;6.596;2023-05-28T07:47:12;13;12;
74880;PMS5003;63427;49.654;6.596;2023-05-28T07:49:36;10;10;
74880;PMS5003;63427;49.654;6.596;2023-05-28T07:52:01;12;12;
74880;PMS5003;63427;49.654;6.596;2023-05-28T07:54:26;13;12;
74880;PMS5003;63427;49.654;6.596;2023-05-28T07:56:51;10;10;
74880;PMS5003;63427;49.654;6.596;2023-05-28T07:59:16;9;9;
74880;PMS5003;63427;49.654;6.596;2023-05-28T08:01:41;11;11;
74880;PMS5003;63427;49.654;6.596;2023-05-28T08:04:06;13;13;
74880;PMS5003;63427;49.654;6.596;2023-05-28T08:06:31;11;10;
74880;PMS5003;63427;49.654;6.596;2023-05-28T08:08:56;10;9;
74880;PMS5003;63427;49.654;6.596;2023-05-28T08:11:22;10;10;
74880;PMS5003;63427;49.654;6.596;2023-05-28T08:13:48;11;11;
74880;PMS5003;63427;49.654;6.596;2023-05-28T08:16:14;10;9;
74880;PMS5003;63427;49.654;6.596;2023-05-28T08:18:39;8;8;
74880;PMS5003;63427;49.654;6.596;2023-05-28T08:21:05;10;10;
74880;PMS5003;63427;49.654;6.596;2023-05-28T08:23:31;10;9;
74880;PMS5003;63427;49.654;6.596;2023-05-28T08:25:57;10;10;
74880;PMS5003;63427;49.654;6.596;2023-05-28T08:28:23;7;7;
74880;PMS5003;63427;49.654;6.596;2023-05-28T08:31:00;9;8;
74880;PMS5003;63427;49.654;6.596;2023-05-28T08:33:19;11;11;
74880;PMS5003;63427;49.654;6.596;2023-05-28T08:35:40;9;9;
74880;PMS5003;63427;49.654;6.596;2023-05-28T08:38:06;8;8;
74880;PMS5003;63427;49.654;6.596;2023-05-28T08:40:32;12;12;
74880;PMS5003;63427;49.654;6.596;2023-05-28T08:42:57;9;9;
74880;PMS5003;63427;49.654;6.596;2023-05-28T08:45:23;10;10;
74880;PMS5003;63427;49.654;6.596;2023-05-28T08:47:49;9;9;
74880;PMS5003;63427;49.654;6.596;2023-05-28T08:50:15;7;6;
74880;PMS5003;63427;49.654;6.596;2023-05-28T08:52:40;9;9;
74880;PMS5003;63427;49.654;6.596;2023-05-28T08:55:06;8;7;
74880;PMS5003;63427;49.654;6.596;2023-05-28T08:57:31;11;11;
74880;PMS5003;63427;49.654;6.596;2023-05-28T08:59:57;7;7;
74880;PMS5003;63427;49.654;6.596;2023-05-28T09:02:23;9;9;
74880;PMS5003;63427;49.654;6.596;2023-05-28T09:04:48;9;8;
74880;PMS5003;63427;49.654;6.596;2023-05-28T09:07:14;7;7;
74880;PMS5003;63427;49.654;6.596;2023-05-28T09:09:40;9;8;
74880;PMS5003;63427;49.654;6.596;2023-05-28T09:12:07;6;6;
74880;PMS5003;63427;49.654;6.596;2023-05-28T09:14:31;10;10;
74880;PMS5003;63427;49.654;6.596;2023-05-28T09:16:57;8;8;
74880;PMS5003;63427;49.654;6.596;2023-05-28T09:19:24;7;6;
74880;PMS5003;63427;49.654;6.596;2023-05-28T09:21:52;9;9;
74880;PMS5003;63427;49.654;6.596;2023-05-28T09:24:13;8;8;
74880;PMS5003;63427;49.654;6.596;2023-05-28T09:26:39;7;7;
74880;PMS5003;63427;49.654;6.596;2023-05-28T09:31:31;8;8;
74880;PMS5003;63427;49.654;6.596;2023-05-28T09:33:56;8;8;
74880;PMS5003;63427;49.654;6.596;2023-05-28T09:36:21;7;7;
74880;PMS5003;63427;49.654;6.596;2023-05-28T09:38:47;9;9;
74880;PMS5003;63427;49.654;6.596;2023-05-28T09:41:18;6;6;
74880;PMS5003;63427;49.654;6.596;2023-05-28T09:43:38;8;8;
74880;PMS5003;63427;49.654;6.596;2023-05-28T09:46:07;8;8;
74880;PMS5003;63427;49.654;6.596;2023-05-28T09:48:30;8;7;
74880;PMS5003;63427;49.654;6.596;2023-05-28T09:50:55;7;7;
74880;PMS5003;63427;49.654;6.596;2023-05-28T09:53:20;7;7;
74880;PMS5003;63427;49.654;6.596;2023-05-28T09:55:46;7;7;
74880;PMS5003;63427;49.654;6.596;2023-05-28T09:58:17;9;9;
74880;PMS5003;63427;49.654;6.596;2023-05-28T10:00:38;10;9;
74880;PMS5003;63427;49.654;6.596;2023-05-28T10:03:05;9;9;
74880;PMS5003;63427;49.654;6.596;2023-05-28T10:05:33;8;7;
74880;PMS5003;63427;49.654;6.596;2023-05-28T10:07:54;6;6;
74880;PMS5003;63427;49.654;6.596;2023-05-28T10:10:20;8;7;
74880;PMS5003;63427;49.654;6.596;2023-05-28T10:12:45;8;8;
74880;PMS5003;63427;49.654;6.596;2023-05-28T10:15:11;6;6;
74880;PMS5003;63427;49.654;6.596;2023-05-28T10:17:37;10;8;
74880;PMS5003;63427;49.654;6.596;2023-05-28T10:20:02;8;8;
74880;PMS5003;63427;49.654;6.596;2023-05-28T10:22:27;7;7;
74880;PMS5003;63427;49.654;6.596;2023-05-28T10:24:53;8;7;
74880;PMS5003;63427;49.654;6.596;2023-05-28T10:27:28;6;6;
74880;PMS5003;63427;49.654;6.596;2023-05-28T10:29:44;8;7;
74880;PMS5003;63427;49.654;6.596;2023-05-28T10:32:10;7;7;
74880;PMS5003;63427;49.654;6.596;2023-05-28T10:34:35;6;5;
74880;PMS5003;63427;49.654;6.596;2023-05-28T10:37:01;7;6;
74880;PMS5003;63427;49.654;6.596;2023-05-28T10:39:26;8;8;
74880;PMS5003;63427;49.654;6.596;2023-05-28T10:41:52;6;6;
74880;PMS5003;63427;49.654;6.596;2023-05-28T10:44:17;8;8;
74880;PMS5003;63427;49.654;6.596;2023-05-28T10:46:43;7;6;
74880;PMS5003;63427;49.654;6.596;2023-05-28T10:49:09;9;8;
74880;PMS5003;63427;49.654;6.596;2023-05-28T10:51:43;6;6;
74880;PMS5003;63427;49.654;6.596;2023-05-28T10:53:59;8;8;
74880;PMS5003;63427;49.654;6.596;2023-05-28T10:56:25;6;6;
74880;PMS5003;63427;49.654;6.596;2023-05-28T10:58:50;8;8;
74880;PMS5003;63427;49.654;6.596;2023-05-28T11:01:18;7;7;
74880;PMS5003;63427;49.654;6.596;2023-05-28T11:03:41;7;7;
74880;PMS5003;63427;49.654;6.596;2023-05-28T11:06:07;5;5;
74880;PMS5003;63427;49.654;6.596;2023-05-28T11:08:32;7;7;
74880;PMS5003;63427;49.654;6.596;2023-05-28T11:10:57;8;8;
74880;PMS5003;63427;49.654;6.596;2023-05-28T11:13:22;7;7;
74880;PMS5003;63427;49.654;6.596;2023-05-28T11:15:48;8;7;
74880;PMS5003;63427;49.654;6.596;2023-05-28T11:18:13;7;7;
74880;PMS5003;63427;49.654;6.596;2023-05-28T11:20:39;8;8;
74880;PMS5003;63427;49.654;6.596;2023-05-28T11:25:30;8;8;
74880;PMS5003;63427;49.654;6.596;2023-05-28T11:27:55;8;7;
74880;PMS5003;63427;49.654;6.596;2023-05-28T11:30:21;7;7;
74880;PMS5003;63427;49.654;6.596;2023-05-28T11:32:47;7;7;
74880;PMS5003;63427;49.654;6.596;2023-05-28T11:35:11;6;6;
74880;PMS5003;63427;49.654;6.596;2023-05-28T11:37:37;7;7;
74880;PMS5003;63427;49.654;6.596;2023-05-28T11:40:04;6;6;
74880;PMS5003;63427;49.654;6.596;2023-05-28T11:42:28;7;7;
74880;PMS5003;63427;49.654;6.596;2023-05-28T11:44:53;7;7;
74880;PMS5003;63427;49.654;6.596;2023-05-28T11:47:18;7;7;
74880;PMS5003;63427;49.654;6.596;2023-05-28T11:49:44;6;6;
74880;PMS5003;63427;49.654;6.596;2023-05-28T11:52:09;8;7;
74880;PMS5003;63427;49.654;6.596;2023-05-28T11:54:35;8;8;
74880;PMS5003;63427;49.654;6.596;2023-05-28T11:57:02;7;7;
74880;PMS5003;63427;49.654;6.596;2023-05-28T11:59:25;8;8;
74880;PMS5003;63427;49.654;6.596;2023-05-28T12:01:50;8;8;
74880;PMS5003;63427;49.654;6.596;2023-05-28T12:04:21;8;8;
74880;PMS5003;63427;49.654;6.596;2023-05-28T12:06:52;7;7;
74880;PMS5003;63427;49.654;6.596;2023-05-28T12:09:07;5;5;
74880;PMS5003;63427;49.654;6.596;2023-05-28T12:11:32;6;6;
74880;PMS5003;63427;49.654;6.596;2023-05-28T12:14:05;7;7;
74880;PMS5003;63427;49.654;6.596;2023-05-28T12:16:23;5;5;
74880;PMS5003;63427;49.654;6.596;2023-05-28T12:18:48;6;5;
74880;PMS5003;63427;49.654;6.596;2023-05-28T12:21:15;6;6;
74880;PMS5003;63427;49.654;6.596;2023-05-28T12:23:39;6;6;
74880;PMS5003;63427;49.654;6.596;2023-05-28T12:26:08;8;8;
74880;PMS5003;63427;49.654;6.596;2023-05-28T12:28:31;5;5;
74880;PMS5003;63427;49.654;6.596;2023-05-28T12:30:55;8;7;
74880;PMS5003;63427;49.654;6.596;2023-05-28T12:33:21;7;7;
74880;PMS5003;63427;49.654;6.596;2023-05-28T12:35:47;7;7;
74880;PMS5003;63427;49.654;6.596;2023-05-28T12:40:37;8;8;
74880;PMS5003;63427;49.654;6.596;2023-05-28T12:43:02;6;6;
74880;PMS5003;63427;49.654;6.596;2023-05-28T12:45:28;6;6;
74880;PMS5003;63427;49.654;6.596;2023-05-28T12:47:53;8;7;
74880;PMS5003;63427;49.654;6.596;2023-05-28T12:50:23;5;5;
74880;PMS5003;63427;49.654;6.596;2023-05-28T12:52:44;9;8;
74880;PMS5003;63427;49.654;6.596;2023-05-28T12:55:09;6;6;
74880;PMS5003;63427;49.654;6.596;2023-05-28T12:57:34;8;7;
74880;PMS5003;63427;49.654;6.596;2023-05-28T13:00:00;8;8;
74880;PMS5003;63427;49.654;6.596;2023-05-28T13:02:25;8;8;
74880;PMS5003;63427;49.654;6.596;2023-05-28T13:04:51;7;7;
74880;PMS5003;63427;49.654;6.596;2023-05-28T13:07:18;6;6;
74880;PMS5003;63427;49.654;6.596;2023-05-28T13:09:41;7;7;
74880;PMS5003;63427;49.654;6.596;2023-05-28T13:12:07;6;6;
74880;PMS5003;63427;49.654;6.596;2023-05-28T13:14:32;7;6;
74880;PMS5003;63427;49.654;6.596;2023-05-28T13:16:58;7;7;
74880;PMS5003;63427;49.654;6.596;2023-05-28T13:19:23;7;7;
74880;PMS5003;63427;49.654;6.596;2023-05-28T13:21:48;7;6;
74880;PMS5003;63427;49.654;6.596;2023-05-28T13:24:14;8;7;
74880;PMS5003;63427;49.654;6.596;2023-05-28T13:26:39;8;8;
74880;PMS5003;63427;49.654;6.596;2023-05-28T13:29:05;7;7;
74880;PMS5003;63427;49.654;6.596;2023-05-28T13:31:30;8;8;
74880;PMS5003;63427;49.654;6.596;2023-05-28T13:33:55;7;7;
74880;PMS5003;63427;49.654;6.596;2023-05-28T13:36:20;5;5;
74880;PMS5003;63427;49.654;6.596;2023-05-28T13:38:46;7;7;
74880;PMS5003;63427;49.654;6.596;2023-05-28T13:41:11;7;7;
74880;PMS5003;63427;49.654;6.596;2023-05-28T13:43:37;6;6;
74880;PMS5003;63427;49.654;6.596;2023-05-28T13:46:02;7;7;
74880;PMS5003;63427;49.654;6.596;2023-05-28T13:48:27;7;7;
74880;PMS5003;63427;49.654;6.596;2023-05-28T13:50:52;8;7;
74880;PMS5003;63427;49.654;6.596;2023-05-28T13:53:18;6;6;
74880;PMS5003;63427;49.654;6.596;2023-05-28T13:55:43;7;7;
74880;PMS5003;63427;49.654;6.596;2023-05-28T13:58:08;7;7;
74880;PMS5003;63427;49.654;6.596;2023-05-28T14:00:39;7;7;
74880;PMS5003;63427;49.654;6.596;2023-05-28T14:03:05;7;7;
74880;PMS5003;63427;49.654;6.596;2023-05-28T14:05:25;7;6;
74880;PMS5003;63427;49.654;6.596;2023-05-28T14:07:50;7;7;
74880;PMS5003;63427;49.654;6.596;2023-05-28T14:10:15;8;7;
74880;PMS5003;63427;49.654;6.596;2023-05-28T14:12:41;6;6;
74880;PMS5003;63427;49.654;6.596;2023-05-28T14:15:07;6;6;
74880;PMS5003;63427;49.654;6.596;2023-05-28T14:17:35;8;8;
74880;PMS5003;63427;49.654;6.596;2023-05-28T14:19:57;8;7;
74880;PMS5003;63427;49.654;6.596;2023-05-28T14:22:23;7;7;
74880;PMS5003;63427;49.654;6.596;2023-05-28T14:24:48;8;8;
74880;PMS5003;63427;49.654;6.596;2023-05-28T14:27:13;7;7;
74880;PMS5003;63427;49.654;6.596;2023-05-28T14:29:39;9;9;
74880;PMS5003;63427;49.654;6.596;2023-05-28T14:32:04;6;6;
74880;PMS5003;63427;49.654;6.596;2023-05-28T14:34:30;6;6;
74880;PMS5003;63427;49.654;6.596;2023-05-28T14:36:55;5;5;
74880;PMS5003;63427;49.654;6.596;2023-05-28T14:39:21;7;7;
74880;PMS5003;63427;49.654;6.596;2023-05-28T14:41:46;8;8;
74880;PMS5003;63427;49.654;6.596;2023-05-28T14:44:11;7;5;
74880;PMS5003;63427;49.654;6.596;2023-05-28T14:46:37;9;9;
74880;PMS5003;63427;49.654;6.596;2023-05-28T14:49:02;7;7;
74880;PMS5003;63427;49.654;6.596;2023-05-28T14:51:28;6;6;
74880;PMS5003;63427;49.654;6.596;2023-05-28T14:53:53;5;5;
74880;PMS5003;63427;49.654;6.596;2023-05-28T14:56:18;7;7;
74880;PMS5003;63427;49.654;6.596;2023-05-28T14:58:43;7;7;
74880;PMS5003;63427;49.654;6.596;2023-05-28T15:01:09;8;8;
74880;PMS5003;63427;49.654;6.596;2023-05-28T15:08:26;8;8;
74880;PMS5003;63427;49.654;6.596;2023-05-28T15:10:51;8;8;
74880;PMS5003;63427;49.654;6.596;2023-05-28T15:13:16;8;8;
74880;PMS5003;63427;49.654;6.596;2023-05-28T15:15:42;5;5;
74880;PMS5003;63427;49.654;6.596;2023-05-28T15:18:07;9;9;
74880;PMS5003;63427;49.654;6.596;2023-05-28T15:20:32;9;9;
74880;PMS5003;63427;49.654;6.596;2023-05-28T15:22:58;6;6;
74880;PMS5003;63427;49.654;6.596;2023-05-28T15:25:23;8;8;
74880;PMS5003;63427;49.654;6.596;2023-05-28T15:27:49;6;6;
74880;PMS5003;63427;49.654;6.596;2023-05-28T15:30:14;8;8;
74880;PMS5003;63427;49.654;6.596;2023-05-28T15:32:39;7;7;
74880;PMS5003;63427;49.654;6.596;2023-05-28T15:35:05;8;8;
74880;PMS5003;63427;49.654;6.596;2023-05-28T15:37:31;9;9;
74880;PMS5003;63427;49.654;6.596;2023-05-28T15:39:56;7;6;
74880;PMS5003;63427;49.654;6.596;2023-05-28T15:42:22;7;7;
74880;PMS5003;63427;49.654;6.596;2023-05-28T15:44:46;8;8;
74880;PMS5003;63427;49.654;6.596;2023-05-28T15:47:17;7;7;
74880;PMS5003;63427;49.654;6.596;2023-05-28T15:49:37;9;9;
74880;PMS5003;63427;49.654;6.596;2023-05-28T15:52:03;10;9;
74880;PMS5003;63427;49.654;6.596;2023-05-28T15:54:29;11;11;
74880;PMS5003;63427;49.654;6.596;2023-05-28T15:56:54;10;10;
74880;PMS5003;63427;49.654;6.596;2023-05-28T15:59:20;9;8;
74880;PMS5003;63427;49.654;6.596;2023-05-28T16:01:45;7;7;
74880;PMS5003;63427;49.654;6.596;2023-05-28T16:04:11;8;8;
74880;PMS5003;63427;49.654;6.596;2023-05-28T16:06:36;9;9;
74880;PMS5003;63427;49.654;6.596;2023-05-28T16:09:01;8;8;
74880;PMS5003;63427;49.654;6.596;2023-05-28T16:11:27;7;7;
74880;PMS5003;63427;49.654;6.596;2023-05-28T16:13:52;7;7;
74880;PMS5003;63427;49.654;6.596;2023-05-28T16:16:18;8;8;
74880;PMS5003;63427;49.654;6.596;2023-05-28T16:18:43;8;8;
74880;PMS5003;63427;49.654;6.596;2023-05-28T16:21:09;7;7;
74880;PMS5003;63427;49.654;6.596;2023-05-28T16:23:34;8;8;
74880;PMS5003;63427;49.654;6.596;2023-05-28T16:26:00;10;10;
74880;PMS5003;63427;49.654;6.596;2023-05-28T16:28:26;8;8;
74880;PMS5003;63427;49.654;6.596;2023-05-28T16:30:51;8;8;
74880;PMS5003;63427;49.654;6.596;2023-05-28T16:33:17;9;9;
74880;PMS5003;63427;49.654;6.596;2023-05-28T16:35:42;8;8;